Weather


ICAO METAR
KAPA KAPA 250953Z 20003KT 10SM SCT090 BKN180 01/M07 A2993 RMK AO2 SLP122 T00111072
KASE KASE 250953Z AUTO 31004KT 7SM -SN OVC012 M03/M05 A3009 RMK AO2 SNE17B35 SLP164 P0000 T10331050
KBJC KBJC 251030Z AUTO 00000KT 10SM OVC120 02/M06 A2994 RMK AO2
KBKF KBKF 250958Z 22004KT 10SM BKN080 BKN200 02/M07 A2993 RMK AO2A SLP112 T00151075
KCOS KCOS 250954Z 34004KT 10SM BKN110 M02/M09 A2994 RMK AO2 SLP137 T10171094
KCPR KCPR 250953Z AUTO 22013G21KT 10SM OVC090 01/M04 A2995 RMK AO2 SLP144 T00111039
KCYS KCYS 250953Z AUTO 33006KT 10SM OVC085 02/M04 A2993 RMK AO2 SLP113 T00221044
KDEN KDEN 250953Z 26008KT 10SM BKN100 BKN220 01/M07 A2993 RMK AO2 SLP111 T00061067
KEGE KEGE 250956Z AUTO 08007KT 9SM -SN OVC050 M01/M04 A3011 RMK AO2 SNB49 SLP216 T10111039 FZRANO PNO $
KFCS KFCS 250958Z AUTO 36007KT 10SM BKN110 M01/M10 A2992 RMK AO2 SLP148 T10101101 $
KFMN KFMN 250953Z AUTO 00000KT 10SM CLR M04/M06 A3010 RMK AO2 SLP204 T10441061
KFTG KFTG 251036Z AUTO 25007KT 10SM SCT085 OVC110 02/M06 A2994 RMK AO2 T00201064
KGCC KGCC 250953Z AUTO 28008KT 10SM OVC090 02/M03 A2990 RMK AO2 SLP127 T00221028
KGJT KGJT 251039Z AUTO 32005KT 3SM BR OVC003 M02/M03 A3017 RMK AO2 T10171028
KPUB KPUB 250953Z AUTO 23005KT 10SM SCT110 M01/M09 A2992 RMK AO2 SLP121 T10111089
KRAP KRAP 250952Z AUTO 00000KT 10SM FEW070 M02/M03 A2985 RMK AO2 SLP134 T10171033
KRCA KRCA 250956Z AUTO 33005KT 10SM SCT080 SCT095 OVC140 M01/M04 A2984 RMK AO2 SLP131 T10141039 $

Surface Data
Click here.

This is a composite map contain the following analyses: radar summary (color filled areas), surface data plot (composite station model), frontal locations (in various bold lines) and pressure contours (in thin blue lines).